createdAt,value
2022-10-11T00:03:07.409Z,37.02853
2022-10-11T00:08:09.024Z,37.61744
2022-10-11T00:13:10.622Z,37.85508
2022-10-11T00:18:12.263Z,37.90007
2022-10-11T00:23:13.866Z,37.37513
2022-10-11T00:28:15.488Z,36.23142
2022-10-11T00:33:17.114Z,36.07689
2022-10-11T00:38:18.712Z,35.39204
2022-10-11T00:43:20.273Z,34.57718
2022-10-11T00:48:21.844Z,35.65387
2022-10-11T00:53:23.464Z,36.16293
2022-10-11T00:58:25.068Z,35.96328
2022-10-11T01:03:26.743Z,40.2124
2022-10-11T01:08:28.334Z,42.47789
2022-10-11T01:13:29.957Z,41.51238
2022-10-11T01:18:31.590Z,42.26786
2022-10-11T01:23:33.165Z,40.3908
2022-10-11T01:28:34.838Z,41.1989
2022-10-11T01:33:36.511Z,44.71262
2022-10-11T01:38:38.112Z,43.0322
2022-10-11T01:43:39.796Z,41.57249
2022-10-11T01:48:41.435Z,43.41851
2022-10-11T01:53:42.988Z,44.88147
2022-10-11T01:58:44.591Z,43.59605
2022-10-11T02:03:46.195Z,45.66475
2022-10-11T02:08:47.836Z,44.39205
2022-10-11T02:13:49.443Z,45.15272
2022-10-11T02:18:51.039Z,45.40775
2022-10-11T02:23:52.643Z,45.07325
2022-10-11T02:28:54.332Z,46.27317
2022-10-11T02:33:56.062Z,48.04472
2022-10-11T02:38:57.671Z,48.02174
2022-10-11T02:43:59.233Z,47.62056
2022-10-11T02:49:00.919Z,48.25916
2022-10-11T02:54:02.647Z,46.27095
2022-10-11T02:59:04.251Z,47.4121
2022-10-11T03:04:05.835Z,47.8655
2022-10-11T03:09:07.406Z,55.45489
2022-10-11T03:14:09.020Z,60.54142
2022-10-11T03:19:10.638Z,61.0674
2022-10-11T03:24:12.213Z,61.99602
2022-10-11T03:29:13.804Z,62.4555
2022-10-11T03:34:15.401Z,66.76135
2022-10-11T03:39:16.983Z,65.64952
2022-10-11T03:44:18.583Z,68.77888
2022-10-11T03:49:20.155Z,65.44846
2022-10-11T03:54:21.831Z,66.63978
2022-10-11T03:59:23.418Z,66.22393
2022-10-11T04:04:25.088Z,69.88373
2022-10-11T04:09:26.703Z,63.79383
2022-10-11T04:14:28.297Z,66.98403
2022-10-11T04:19:29.891Z,71.01379
2022-10-11T04:24:31.467Z,65.03517
2022-10-11T04:29:33.139Z,64.05532
2022-10-11T04:34:34.773Z,71.89867
2022-10-11T04:39:36.360Z,69.28556
2022-10-11T04:44:37.940Z,66.67386
2022-10-11T04:49:39.530Z,65.85442
2022-10-11T04:54:41.132Z,67.40316
2022-10-11T04:59:45.523Z,64.06375
2022-10-11T05:04:51.004Z,66.26706
2022-10-11T05:09:52.618Z,65.66302
2022-10-11T05:14:54.211Z,65.86592
2022-10-11T05:19:55.787Z,70.04932
2022-10-11T05:24:57.349Z,65.29527
2022-10-11T05:29:59.089Z,69.93647
2022-10-11T05:35:00.646Z,66.73943
2022-10-11T05:40:02.299Z,69.02201
2022-10-11T05:45:03.887Z,67.48765
2022-10-11T05:50:05.559Z,67.09464
2022-10-11T05:55:07.138Z,63.707
2022-10-11T06:00:08.752Z,68.41291
2022-10-11T06:05:10.327Z,69.49149
2022-10-11T06:10:11.954Z,67.86453
2022-10-11T06:15:13.591Z,72.50303
2022-10-11T06:20:15.197Z,69.37788
2022-10-11T06:25:16.800Z,68.66237
2022-10-11T06:30:18.495Z,70.25518
2022-10-11T06:35:20.111Z,72.52437
2022-10-11T06:40:21.724Z,72.35697
2022-10-11T06:45:23.441Z,68.05796
2022-10-11T06:50:47.299Z,68.50192
2022-10-11T06:55:56.407Z,68.84172
2022-10-11T07:00:58.124Z,72.2989
2022-10-11T07:06:02.452Z,68.50825
2022-10-11T07:11:04.598Z,69.72999
2022-10-11T07:16:06.726Z,69.83636
2022-10-11T07:21:08.619Z,70.34608
2022-10-11T07:26:10.349Z,70.1673
2022-10-11T07:31:12.034Z,68.21292
2022-10-11T07:36:13.623Z,69.25186
2022-10-11T07:41:15.259Z,70.23987
2022-10-11T07:46:16.838Z,71.13595
2022-10-11T07:51:18.441Z,70.98148
2022-10-11T07:56:20.052Z,71.68195
2022-10-11T08:01:21.716Z,66.22387
2022-10-11T08:11:39.182Z,69.32628
2022-10-11T08:13:23.981Z,68.21072
2022-10-11T08:18:25.637Z,67.27255
2022-10-11T08:23:27.212Z,64.52668
2022-10-11T08:28:29.703Z,66.91046
2022-10-11T08:33:31.421Z,66.48622
2022-10-11T08:38:33.299Z,67.37885
2022-10-11T08:43:35.177Z,71.16975
2022-10-11T08:48:37.115Z,64.94115
2022-10-11T08:53:39.020Z,63.03556
2022-10-11T08:58:40.904Z,68.21735
2022-10-11T09:03:42.782Z,61.36984
2022-10-11T09:08:44.706Z,64.59968
2022-10-11T09:13:46.320Z,63.27399
2022-10-11T09:18:47.963Z,65.25931
2022-10-11T09:23:49.539Z,67.21302
2022-10-11T09:28:51.258Z,64.93529
2022-10-11T09:33:52.898Z,69.38898
2022-10-11T09:38:54.504Z,68.81619
2022-10-11T09:43:56.084Z,70.289
2022-10-11T09:48:57.692Z,73.96366
2022-10-11T09:53:59.306Z,72.24537
2022-10-11T09:59:00.904Z,72.51139
2022-10-11T10:04:02.472Z,72.19855
2022-10-11T10:09:04.185Z,70.45636
2022-10-11T10:14:05.760Z,74.91881
2022-10-11T10:19:07.356Z,69.8309
2022-10-11T10:24:08.931Z,69.47019
2022-10-11T10:29:10.537Z,69.20949
2022-10-11T10:34:12.132Z,70.17512
2022-10-11T10:39:13.704Z,72.88121
2022-10-11T10:44:15.301Z,69.37532
2022-10-11T10:49:48.806Z,69.8716
2022-10-11T10:54:53.935Z,68.5981
2022-10-11T10:59:55.627Z,72.42056
2022-10-11T11:04:57.267Z,70.49428
2022-10-11T11:09:58.885Z,68.28185
2022-10-11T11:15:00.541Z,65.77531
2022-10-11T11:20:02.167Z,65.40849
2022-10-11T11:25:03.756Z,65.4984
2022-10-11T11:30:05.395Z,63.71932
2022-10-11T11:35:07.303Z,65.44692
2022-10-11T11:40:08.887Z,67.80493
2022-10-11T11:45:10.438Z,66.82945
2022-10-11T11:50:12.197Z,66.32754
2022-10-11T11:55:13.875Z,62.84204
2022-10-11T12:00:15.470Z,62.2501
2022-10-11T12:05:17.073Z,62.29276
2022-10-11T12:10:18.693Z,66.85435
2022-10-11T12:15:20.319Z,64.71195
2022-10-11T12:20:21.927Z,64.5641
2022-10-11T12:25:23.539Z,59.76153
2022-10-11T12:30:25.239Z,61.27405
2022-10-11T12:35:26.803Z,61.6689
2022-10-11T12:40:28.510Z,61.48767
2022-10-11T12:45:30.111Z,59.67757
2022-10-11T12:50:31.785Z,59.84116
2022-10-11T12:55:33.414Z,59.81953
2022-10-11T13:00:35.012Z,60.09523
2022-10-11T13:05:36.599Z,58.04858
2022-10-11T13:10:38.196Z,59.38175
2022-10-11T13:15:39.770Z,59.5064
2022-10-11T13:20:42.561Z,59.17288
2022-10-11T13:25:44.278Z,57.85975
2022-10-11T13:30:45.876Z,58.11899
2022-10-11T13:35:47.500Z,57.44277
2022-10-11T13:40:51.142Z,58.10953
2022-10-11T13:45:53.056Z,57.28914
2022-10-11T13:50:54.644Z,59.51764
2022-10-11T13:55:56.234Z,58.43959
2022-10-11T14:00:57.888Z,57.62347
2022-10-11T14:05:59.526Z,57.53205
2022-10-11T14:11:06.084Z,56.9246
2022-10-11T14:16:08.717Z,59.04303
2022-10-11T14:21:11.140Z,58.25571
2022-10-11T14:26:16.389Z,57.02155
2022-10-11T14:31:20.287Z,57.33281
2022-10-11T14:36:21.861Z,55.75252
2022-10-11T14:41:23.476Z,56.08217
2022-10-11T14:46:25.129Z,56.97244
2022-10-11T14:51:26.728Z,58.11246
2022-10-11T14:56:28.340Z,58.54039
2022-10-11T15:01:30.288Z,56.80168
2022-10-11T15:06:31.977Z,51.6746
2022-10-11T15:11:33.657Z,51.96443
2022-10-11T15:16:35.280Z,52.56684
2022-10-11T15:21:36.871Z,54.88781
2022-10-11T15:26:38.523Z,51.40908
2022-10-11T15:31:40.121Z,48.67593
2022-10-11T15:36:41.776Z,50.54655
2022-10-11T15:41:43.367Z,48.69873
2022-10-11T15:46:44.967Z,46.9826
2022-10-11T15:51:46.566Z,48.04833
2022-10-11T15:56:48.149Z,47.81214
2022-10-11T16:01:49.764Z,42.42443
2022-10-11T16:06:51.394Z,47.96242
2022-10-11T16:11:52.953Z,43.52958
2022-10-11T16:16:54.566Z,37.03419
2022-10-11T16:21:56.140Z,42.13535
2022-10-11T16:26:57.762Z,39.20482
2022-10-11T16:31:59.377Z,34.75734
2022-10-11T16:37:00.993Z,33.16672
2022-10-11T16:42:02.573Z,39.98082
2022-10-11T16:47:04.240Z,33.63611
2022-10-11T16:52:05.936Z,28.21317
2022-10-11T16:57:07.594Z,31.01965
2022-10-11T17:02:09.183Z,29.11915
2022-10-11T17:07:10.803Z,28.66533
2022-10-11T17:12:12.388Z,26.24235
2022-10-11T17:17:13.984Z,29.45074
2022-10-11T17:22:15.620Z,26.31451
2022-10-11T17:27:17.350Z,26.95273
2022-10-11T17:32:18.948Z,24.65038
2022-10-11T17:37:20.579Z,26.24663
2022-10-11T17:42:22.176Z,28.09122
2022-10-11T17:47:23.807Z,26.06395
2022-10-11T17:52:25.412Z,25.82068
2022-10-11T17:57:27.023Z,23.77379
2022-10-11T18:02:28.648Z,26.60752
2022-10-11T18:07:30.257Z,25.54409
2022-10-11T18:12:31.884Z,25.40074
2022-10-11T18:17:33.526Z,25.08281
2022-10-11T18:22:35.117Z,23.98025
2022-10-11T18:27:36.692Z,22.76793
2022-10-11T18:32:38.298Z,21.32454
2022-10-11T18:37:39.939Z,22.61479
2022-10-11T18:42:41.574Z,23.07521
2022-10-11T18:47:43.211Z,22.32149
2022-10-11T18:52:44.824Z,23.95285
2022-10-11T18:57:46.446Z,22.25178
2022-10-11T19:02:48.058Z,23.78692
2022-10-11T19:07:49.675Z,23.67719
2022-10-11T19:12:51.264Z,24.15466
2022-10-11T19:17:52.854Z,23.12333
2022-10-11T19:22:54.451Z,21.87701
2022-10-11T19:27:56.065Z,22.61443
2022-10-11T19:32:57.697Z,21.25254
2022-10-11T19:37:59.279Z,23.09872
2022-10-11T19:43:00.901Z,21.31978
2022-10-11T19:48:02.504Z,20.75219
2022-10-11T19:53:04.187Z,19.68704
2022-10-11T19:58:08.268Z,20.63689
2022-10-11T20:03:10.204Z,19.40032
2022-10-11T20:08:11.806Z,20.83526
2022-10-11T20:13:13.381Z,20.23533
2022-10-11T20:18:15.011Z,21.18403
2022-10-11T20:23:18.268Z,20.75954
2022-10-11T20:28:20.509Z,20.73426
2022-10-11T20:33:22.250Z,19.46145
2022-10-11T20:38:23.834Z,20.34174
2022-10-11T20:43:25.485Z,21.40163
2022-10-11T20:48:27.133Z,21.40595
2022-10-11T20:53:28.699Z,21.53043
2022-10-11T20:58:30.306Z,22.57715
2022-10-11T21:03:32.035Z,21.98571
2022-10-11T21:08:33.624Z,22.46902
2022-10-11T21:13:35.265Z,22.51218
2022-10-11T21:18:36.963Z,22.60742
2022-10-11T21:23:38.564Z,23.24071
2022-10-11T21:28:40.234Z,23.13301
2022-10-11T21:33:41.947Z,21.85801
2022-10-11T21:38:43.549Z,23.40556
2022-10-11T21:43:45.164Z,23.30224
2022-10-11T21:48:46.792Z,23.64905
2022-10-11T21:53:48.402Z,21.51069
2022-10-11T21:58:50.025Z,22.92596
2022-10-11T22:03:51.641Z,21.69764
2022-10-11T22:08:53.259Z,20.3605
2022-10-11T22:13:54.838Z,21.30073
2022-10-11T22:18:56.578Z,22.22767
2022-10-11T22:23:58.161Z,21.69714
2022-10-11T22:28:59.772Z,20.69089
2022-10-11T22:34:01.423Z,20.47232
2022-10-11T22:39:03.224Z,20.03221
2022-10-11T22:44:04.875Z,20.5211
2022-10-11T22:49:06.495Z,21.33832
2022-10-11T22:54:08.061Z,21.63314
2022-10-11T22:59:09.664Z,21.68309
2022-10-11T23:04:11.267Z,22.20344
2022-10-11T23:09:12.826Z,21.02851
2022-10-11T23:14:14.448Z,21.22595
2022-10-11T23:19:16.082Z,22.32003
2022-10-11T23:24:17.670Z,25.90716
2022-10-11T23:29:19.320Z,23.29452
2022-10-11T23:34:20.898Z,24.73931
2022-10-11T23:39:22.463Z,24.18105
2022-10-11T23:44:24.080Z,24.55663
2022-10-11T23:49:25.717Z,25.84296
2022-10-11T23:54:27.316Z,25.05898
2022-10-11T23:59:29.065Z,25.54379
